sensor_id;sensor_type;location;lat;lon;timestamp;pressure;altitude;pressure_sealevel;temperature;humidity
12722;BME280;6425;50.316;8.114;2023-05-02T00:00:00;992;;;9.8;82.3
12722;BME280;6425;50.316;8.114;2023-05-02T00:03:00;992;;;10;81
12722;BME280;6425;50.316;8.114;2023-05-02T00:06:00;992;;;9.8;80.6
12722;BME280;6425;50.316;8.114;2023-05-02T00:09:00;992;;;9.6;81.9
12722;BME280;6425;50.316;8.114;2023-05-02T00:12:00;992;;;9.6;81.8
12722;BME280;6425;50.316;8.114;2023-05-02T00:15:00;992;;;9.6;81.6
12722;BME280;6425;50.316;8.114;2023-05-02T00:18:00;992;;;9.3;82.5
12722;BME280;6425;50.316;8.114;2023-05-02T00:21:00;992;;;8.8;84.7
12722;BME280;6425;50.316;8.114;2023-05-02T00:24:00;992;;;8.6;86.9
12722;BME280;6425;50.316;8.114;2023-05-02T00:27:00;992;;;8.8;87.7
12722;BME280;6425;50.316;8.114;2023-05-02T00:30:00;992;;;9.1;86.2
12722;BME280;6425;50.316;8.114;2023-05-02T00:33:00;992;;;9.2;86
12722;BME280;6425;50.316;8.114;2023-05-02T00:36:00;992;;;9.4;84.7
12722;BME280;6425;50.316;8.114;2023-05-02T00:39:00;992;;;9.4;83.7
12722;BME280;6425;50.316;8.114;2023-05-02T00:42:00;992;;;9.6;83
12722;BME280;6425;50.316;8.114;2023-05-02T00:45:00;992;;;9.3;82.9
12722;BME280;6425;50.316;8.114;2023-05-02T00:48:00;992;;;8.9;85.3
12722;BME280;6425;50.316;8.114;2023-05-02T00:51:01;992;;;8.8;86.5
12722;BME280;6425;50.316;8.114;2023-05-02T00:54:00;992;;;8.9;86
12722;BME280;6425;50.316;8.114;2023-05-02T00:57:00;992;;;8.9;85.4
12722;BME280;6425;50.316;8.114;2023-05-02T01:00:00;992;;;8.7;86.4
12722;BME280;6425;50.316;8.114;2023-05-02T01:03:03;992;;;8.8;86.8
12722;BME280;6425;50.316;8.114;2023-05-02T01:06:03;992;;;9;85.9
12722;BME280;6425;50.316;8.114;2023-05-02T01:09:01;992;;;9.3;85
12722;BME280;6425;50.316;8.114;2023-05-02T01:12:00;992;;;9.6;83.2
12722;BME280;6425;50.316;8.114;2023-05-02T01:15:01;992;;;9.5;80.9
12722;BME280;6425;50.316;8.114;2023-05-02T01:18:00;992;;;9.7;80.7
12722;BME280;6425;50.316;8.114;2023-05-02T01:21:00;992;;;9.6;79.9
12722;BME280;6425;50.316;8.114;2023-05-02T01:24:01;992;;;9.4;81.5
12722;BME280;6425;50.316;8.114;2023-05-02T01:27:00;992;;;9.2;82.3
12722;BME280;6425;50.316;8.114;2023-05-02T01:30:00;992;;;9.1;82.6
12722;BME280;6425;50.316;8.114;2023-05-02T01:33:00;992;;;9.1;82.6
12722;BME280;6425;50.316;8.114;2023-05-02T01:36:00;992;;;9;83.8
12722;BME280;6425;50.316;8.114;2023-05-02T01:39:00;992;;;8.6;87
12722;BME280;6425;50.316;8.114;2023-05-02T01:42:00;992;;;8.9;87.5
12722;BME280;6425;50.316;8.114;2023-05-02T01:45:00;992;;;9.1;85.8
12722;BME280;6425;50.316;8.114;2023-05-02T01:48:00;992;;;9;86.8
12722;BME280;6425;50.316;8.114;2023-05-02T01:51:00;992;;;9.1;86.4
12722;BME280;6425;50.316;8.114;2023-05-02T01:54:00;992;;;9.2;86.2
12722;BME280;6425;50.316;8.114;2023-05-02T01:57:00;992;;;9.1;88.1
12722;BME280;6425;50.316;8.114;2023-05-02T02:00:00;992;;;9.3;86.7
12722;BME280;6425;50.316;8.114;2023-05-02T02:03:00;992;;;8.9;85.4
12722;BME280;6425;50.316;8.114;2023-05-02T02:06:00;992;;;8.5;88.1
12722;BME280;6425;50.316;8.114;2023-05-02T02:09:00;992;;;8.5;89.4
12722;BME280;6425;50.316;8.114;2023-05-02T02:12:01;992;;;8.7;89.4
12722;BME280;6425;50.316;8.114;2023-05-02T02:15:02;992;;;8.7;88
12722;BME280;6425;50.316;8.114;2023-05-02T02:18:00;992;;;8.4;89.2
12722;BME280;6425;50.316;8.114;2023-05-02T02:21:00;992;;;8.2;90.7
12722;BME280;6425;50.316;8.114;2023-05-02T02:24:00;992;;;8.2;91.6
12722;BME280;6425;50.316;8.114;2023-05-02T02:27:00;992;;;8.3;91.4
12722;BME280;6425;50.316;8.114;2023-05-02T02:30:00;992;;;8.5;90
12722;BME280;6425;50.316;8.114;2023-05-02T02:33:00;992;;;8.5;88.6
12722;BME280;6425;50.316;8.114;2023-05-02T02:36:01;992;;;8.4;86.2
12722;BME280;6425;50.316;8.114;2023-05-02T02:39:02;992;;;8.5;86
12722;BME280;6425;50.316;8.114;2023-05-02T02:42:02;993;;;8.8;86
12722;BME280;6425;50.316;8.114;2023-05-02T02:45:00;993;;;8.3;90.4
12722;BME280;6425;50.316;8.114;2023-05-02T02:48:01;993;;;8.4;91.8
12722;BME280;6425;50.316;8.114;2023-05-02T02:51:02;993;;;8.1;92.9
12722;BME280;6425;50.316;8.114;2023-05-02T02:54:03;993;;;8.1;93.9
12722;BME280;6425;50.316;8.114;2023-05-02T02:57:00;993;;;8.2;95.1
12722;BME280;6425;50.316;8.114;2023-05-02T03:00:00;993;;;8.6;94.8
12722;BME280;6425;50.316;8.114;2023-05-02T03:03:00;993;;;8.9;92.3
12722;BME280;6425;50.316;8.114;2023-05-02T03:06:00;993;;;8.8;89.6
12722;BME280;6425;50.316;8.114;2023-05-02T03:09:00;993;;;8.7;90.8
12722;BME280;6425;50.316;8.114;2023-05-02T03:12:00;993;;;9;90
12722;BME280;6425;50.316;8.114;2023-05-02T03:15:02;993;;;8.9;89.1
12722;BME280;6425;50.316;8.114;2023-05-02T03:18:00;993;;;8.6;91.5
12722;BME280;6425;50.316;8.114;2023-05-02T03:21:00;993;;;8.1;93.7
12722;BME280;6425;50.316;8.114;2023-05-02T03:24:00;993;;;7.9;96.2
12722;BME280;6425;50.316;8.114;2023-05-02T03:27:00;993;;;7.8;97.3
12722;BME280;6425;50.316;8.114;2023-05-02T03:30:00;993;;;7.7;99.1
12722;BME280;6425;50.316;8.114;2023-05-02T03:33:00;993;;;7.9;100
12722;BME280;6425;50.316;8.114;2023-05-02T03:36:00;993;;;8.2;100
12722;BME280;6425;50.316;8.114;2023-05-02T03:39:00;993;;;8.3;100
12722;BME280;6425;50.316;8.114;2023-05-02T03:42:00;993;;;8.6;100
12722;BME280;6425;50.316;8.114;2023-05-02T03:45:00;993;;;8.7;100
12722;BME280;6425;50.316;8.114;2023-05-02T03:48:00;993;;;8.9;99.9
12722;BME280;6425;50.316;8.114;2023-05-02T03:51:00;993;;;8.9;100
12722;BME280;6425;50.316;8.114;2023-05-02T03:54:00;993;;;9;100
12722;BME280;6425;50.316;8.114;2023-05-02T03:57:00;993;;;9.1;99.8
12722;BME280;6425;50.316;8.114;2023-05-02T04:00:00;993;;;9.4;99
12722;BME280;6425;50.316;8.114;2023-05-02T04:03:00;993;;;9.4;98
12722;BME280;6425;50.316;8.114;2023-05-02T04:06:00;994;;;9.1;98.7
12722;BME280;6425;50.316;8.114;2023-05-02T04:09:00;993;;;9.2;98.9
12722;BME280;6425;50.316;8.114;2023-05-02T04:12:00;994;;;9.2;99
12722;BME280;6425;50.316;8.114;2023-05-02T04:15:00;994;;;9.3;98.9
12722;BME280;6425;50.316;8.114;2023-05-02T04:18:00;993;;;9.2;98.6
12722;BME280;6425;50.316;8.114;2023-05-02T04:21:00;994;;;9.2;98.6
12722;BME280;6425;50.316;8.114;2023-05-02T04:24:00;994;;;9.1;98.9
12722;BME280;6425;50.316;8.114;2023-05-02T04:27:00;994;;;9.1;99.1
12722;BME280;6425;50.316;8.114;2023-05-02T04:30:00;994;;;9.3;98.8
12722;BME280;6425;50.316;8.114;2023-05-02T04:33:00;994;;;9.4;98.1
12722;BME280;6425;50.316;8.114;2023-05-02T04:36:00;994;;;9.5;97.7
12722;BME280;6425;50.316;8.114;2023-05-02T04:39:00;994;;;9.5;97.2
12722;BME280;6425;50.316;8.114;2023-05-02T04:42:00;994;;;9.6;96.9
12722;BME280;6425;50.316;8.114;2023-05-02T04:45:00;994;;;9.6;96.3
12722;BME280;6425;50.316;8.114;2023-05-02T04:48:00;994;;;9.7;96.4
12722;BME280;6425;50.316;8.114;2023-05-02T04:51:00;994;;;9.8;95.9
12722;BME280;6425;50.316;8.114;2023-05-02T04:54:00;994;;;9.9;95.4
12722;BME280;6425;50.316;8.114;2023-05-02T04:57:00;994;;;9.8;95.6
12722;BME280;6425;50.316;8.114;2023-05-02T05:00:00;994;;;9.6;96.5
12722;BME280;6425;50.316;8.114;2023-05-02T05:03:00;994;;;9.6;96.8
12722;BME280;6425;50.316;8.114;2023-05-02T05:06:00;994;;;9.6;97.2
12722;BME280;6425;50.316;8.114;2023-05-02T05:09:00;994;;;9.8;97.1
12722;BME280;6425;50.316;8.114;2023-05-02T05:12:00;994;;;10;96.3
12722;BME280;6425;50.316;8.114;2023-05-02T05:15:00;994;;;10;95.5
12722;BME280;6425;50.316;8.114;2023-05-02T05:18:00;994;;;10.1;95.1
12722;BME280;6425;50.316;8.114;2023-05-02T05:21:00;994;;;10;95
12722;BME280;6425;50.316;8.114;2023-05-02T05:24:00;994;;;10;94.8
12722;BME280;6425;50.316;8.114;2023-05-02T05:27:00;994;;;10.1;94.5
12722;BME280;6425;50.316;8.114;2023-05-02T05:30:00;994;;;10.1;94.5
12722;BME280;6425;50.316;8.114;2023-05-02T05:33:00;994;;;10.2;94.4
12722;BME280;6425;50.316;8.114;2023-05-02T05:36:03;994;;;10.2;94
12722;BME280;6425;50.316;8.114;2023-05-02T05:39:00;994;;;10.2;94.2
12722;BME280;6425;50.316;8.114;2023-05-02T05:42:00;994;;;10.2;94
12722;BME280;6425;50.316;8.114;2023-05-02T05:45:00;994;;;10.4;93.6
12722;BME280;6425;50.316;8.114;2023-05-02T05:48:00;995;;;10.3;92.4
12722;BME280;6425;50.316;8.114;2023-05-02T05:51:02;995;;;10.4;92.4
12722;BME280;6425;50.316;8.114;2023-05-02T05:54:00;995;;;10.4;92.1
12722;BME280;6425;50.316;8.114;2023-05-02T05:57:00;995;;;10.4;92.6
12722;BME280;6425;50.316;8.114;2023-05-02T06:00:00;995;;;10.4;92.5
12722;BME280;6425;50.316;8.114;2023-05-02T06:03:00;995;;;10.2;92.1
12722;BME280;6425;50.316;8.114;2023-05-02T06:06:00;995;;;10.4;93
12722;BME280;6425;50.316;8.114;2023-05-02T06:09:00;995;;;10.5;92.6
12722;BME280;6425;50.316;8.114;2023-05-02T06:12:00;995;;;10.9;91.3
12722;BME280;6425;50.316;8.114;2023-05-02T06:15:00;995;;;10.9;89.8
12722;BME280;6425;50.316;8.114;2023-05-02T06:18:00;995;;;10.8;90
12722;BME280;6425;50.316;8.114;2023-05-02T06:21:02;995;;;10.8;90
12722;BME280;6425;50.316;8.114;2023-05-02T06:24:00;995;;;10.5;90.3
12722;BME280;6425;50.316;8.114;2023-05-02T06:27:00;995;;;10.4;91.3
12722;BME280;6425;50.316;8.114;2023-05-02T06:30:00;995;;;10.3;91.2
12722;BME280;6425;50.316;8.114;2023-05-02T06:33:00;995;;;10.2;91.6
12722;BME280;6425;50.316;8.114;2023-05-02T06:36:00;995;;;10.1;91.9
12722;BME280;6425;50.316;8.114;2023-05-02T06:39:00;995;;;10.2;92.2
12722;BME280;6425;50.316;8.114;2023-05-02T06:42:00;995;;;10.2;92.2
12722;BME280;6425;50.316;8.114;2023-05-02T06:45:00;995;;;10.3;92.8
12722;BME280;6425;50.316;8.114;2023-05-02T06:48:00;995;;;10.2;93.2
12722;BME280;6425;50.316;8.114;2023-05-02T06:51:00;995;;;10.1;92.1
12722;BME280;6425;50.316;8.114;2023-05-02T06:54:00;995;;;10.1;91.9
12722;BME280;6425;50.316;8.114;2023-05-02T06:57:00;995;;;10.1;91.5
12722;BME280;6425;50.316;8.114;2023-05-02T07:00:00;996;;;10.1;91.9
12722;BME280;6425;50.316;8.114;2023-05-02T07:03:00;996;;;10.1;92.2
12722;BME280;6425;50.316;8.114;2023-05-02T07:06:00;996;;;10;92.1
12722;BME280;6425;50.316;8.114;2023-05-02T07:09:00;996;;;10;91.6
12722;BME280;6425;50.316;8.114;2023-05-02T07:12:00;996;;;10.1;91.7
12722;BME280;6425;50.316;8.114;2023-05-02T07:15:00;996;;;9.9;91.5
12722;BME280;6425;50.316;8.114;2023-05-02T07:18:00;996;;;9.9;92
12722;BME280;6425;50.316;8.114;2023-05-02T07:21:00;996;;;10;91.7
12722;BME280;6425;50.316;8.114;2023-05-02T07:24:00;996;;;10.2;90.9
12722;BME280;6425;50.316;8.114;2023-05-02T07:27:00;996;;;10.1;90
12722;BME280;6425;50.316;8.114;2023-05-02T07:30:00;996;;;10.3;89.7
12722;BME280;6425;50.316;8.114;2023-05-02T07:33:00;996;;;10.2;90
12722;BME280;6425;50.316;8.114;2023-05-02T07:36:00;996;;;10;90.1
12722;BME280;6425;50.316;8.114;2023-05-02T07:39:00;996;;;10.1;89.9
12722;BME280;6425;50.316;8.114;2023-05-02T07:42:00;996;;;10.2;89.8
12722;BME280;6425;50.316;8.114;2023-05-02T07:45:00;996;;;10.3;89
12722;BME280;6425;50.316;8.114;2023-05-02T07:48:00;996;;;10.4;88.3
12722;BME280;6425;50.316;8.114;2023-05-02T07:51:07;996;;;10.4;87.7
12722;BME280;6425;50.316;8.114;2023-05-02T07:54:00;996;;;10.4;88
12722;BME280;6425;50.316;8.114;2023-05-02T07:57:00;996;;;10.4;87.1
12722;BME280;6425;50.316;8.114;2023-05-02T08:00:00;996;;;10.5;87.5
12722;BME280;6425;50.316;8.114;2023-05-02T08:03:00;996;;;10.6;87.3
12722;BME280;6425;50.316;8.114;2023-05-02T08:06:00;996;;;10.9;86.1
12722;BME280;6425;50.316;8.114;2023-05-02T08:09:00;996;;;10.8;84.3
12722;BME280;6425;50.316;8.114;2023-05-02T08:12:00;996;;;10.8;84.5
12722;BME280;6425;50.316;8.114;2023-05-02T08:15:03;996;;;11.1;84.8
12722;BME280;6425;50.316;8.114;2023-05-02T08:18:00;996;;;10.9;84.3
12722;BME280;6425;50.316;8.114;2023-05-02T08:21:00;996;;;10.7;84.6
12722;BME280;6425;50.316;8.114;2023-05-02T08:24:00;996;;;10.6;85.1
12722;BME280;6425;50.316;8.114;2023-05-02T08:27:00;996;;;10.7;84.3
12722;BME280;6425;50.316;8.114;2023-05-02T08:30:00;996;;;10.6;84.3
12722;BME280;6425;50.316;8.114;2023-05-02T08:33:00;996;;;10.8;83.8
12722;BME280;6425;50.316;8.114;2023-05-02T08:36:00;996;;;10.9;82.2
12722;BME280;6425;50.316;8.114;2023-05-02T08:39:00;996;;;10.9;83.2
12722;BME280;6425;50.316;8.114;2023-05-02T08:42:00;996;;;10.9;84.2
12722;BME280;6425;50.316;8.114;2023-05-02T08:45:00;996;;;11;82.8
12722;BME280;6425;50.316;8.114;2023-05-02T08:48:00;996;;;11.1;83.5
12722;BME280;6425;50.316;8.114;2023-05-02T08:51:00;996;;;11.1;82.7
12722;BME280;6425;50.316;8.114;2023-05-02T08:54:00;996;;;11.4;81.9
12722;BME280;6425;50.316;8.114;2023-05-02T08:57:00;996;;;11.1;80.7
12722;BME280;6425;50.316;8.114;2023-05-02T09:00:00;996;;;11.3;80.1
12722;BME280;6425;50.316;8.114;2023-05-02T09:03:03;996;;;11.7;77.7
12722;BME280;6425;50.316;8.114;2023-05-02T09:06:03;997;;;11.9;76.9
12722;BME280;6425;50.316;8.114;2023-05-02T09:09:00;997;;;12.4;74.7
12722;BME280;6425;50.316;8.114;2023-05-02T09:12:00;996;;;13;72.2
12722;BME280;6425;50.316;8.114;2023-05-02T09:15:15;997;;;12.7;71.7
12722;BME280;6425;50.316;8.114;2023-05-02T09:18:00;997;;;12.3;72.4
12722;BME280;6425;50.316;8.114;2023-05-02T09:21:00;997;;;12.4;72.5
12722;BME280;6425;50.316;8.114;2023-05-02T09:24:00;997;;;12.9;69.2
12722;BME280;6425;50.316;8.114;2023-05-02T09:27:00;997;;;13;68.5
12722;BME280;6425;50.316;8.114;2023-05-02T09:30:17;997;;;13.3;69
12722;BME280;6425;50.316;8.114;2023-05-02T09:33:00;997;;;12.9;69.4
12722;BME280;6425;50.316;8.114;2023-05-02T09:36:00;997;;;12.6;71.3
12722;BME280;6425;50.316;8.114;2023-05-02T09:39:07;997;;;12.6;72.7
12722;BME280;6425;50.316;8.114;2023-05-02T09:42:00;997;;;12.9;72
12722;BME280;6425;50.316;8.114;2023-05-02T09:45:00;997;;;13.1;72.4
12722;BME280;6425;50.316;8.114;2023-05-02T09:48:00;997;;;12.9;71.4
12722;BME280;6425;50.316;8.114;2023-05-02T09:51:00;997;;;12.8;70.9
12722;BME280;6425;50.316;8.114;2023-05-02T09:54:00;997;;;13.4;69.9
12722;BME280;6425;50.316;8.114;2023-05-02T09:57:00;997;;;13.1;69.6
12722;BME280;6425;50.316;8.114;2023-05-02T10:00:00;997;;;13.2;70
12722;BME280;6425;50.316;8.114;2023-05-02T10:03:00;997;;;12.9;70.8
12722;BME280;6425;50.316;8.114;2023-05-02T10:06:00;997;;;13.1;72.1
12722;BME280;6425;50.316;8.114;2023-05-02T10:09:00;997;;;13.3;70.1
12722;BME280;6425;50.316;8.114;2023-05-02T10:12:00;997;;;12.9;71.4
12722;BME280;6425;50.316;8.114;2023-05-02T10:15:02;997;;;13.2;71.3
12722;BME280;6425;50.316;8.114;2023-05-02T10:18:00;996;;;13.4;70.4
12722;BME280;6425;50.316;8.114;2023-05-02T10:21:00;996;;;13.6;69.2
12722;BME280;6425;50.316;8.114;2023-05-02T10:24:00;996;;;14.1;66.9
12722;BME280;6425;50.316;8.114;2023-05-02T10:27:00;996;;;14.5;66.8
12722;BME280;6425;50.316;8.114;2023-05-02T10:30:00;996;;;14.9;62.6
12722;BME280;6425;50.316;8.114;2023-05-02T10:33:00;996;;;14.9;58.4
12722;BME280;6425;50.316;8.114;2023-05-02T10:36:00;996;;;14.7;58
12722;BME280;6425;50.316;8.114;2023-05-02T10:39:00;996;;;15;59.2
12722;BME280;6425;50.316;8.114;2023-05-02T10:42:00;996;;;15.3;57.9
12722;BME280;6425;50.316;8.114;2023-05-02T10:45:00;996;;;14.4;61
12722;BME280;6425;50.316;8.114;2023-05-02T10:48:15;997;;;14.3;63.8
12722;BME280;6425;50.316;8.114;2023-05-02T10:51:00;996;;;13.7;65.9
12722;BME280;6425;50.316;8.114;2023-05-02T10:54:31;997;;;13.4;66.2
12722;BME280;6425;50.316;8.114;2023-05-02T10:57:00;997;;;13.5;65.1
12722;BME280;6425;50.316;8.114;2023-05-02T11:00:03;996;;;13.6;64.1
12722;BME280;6425;50.316;8.114;2023-05-02T11:03:00;996;;;14.2;64.3
12722;BME280;6425;50.316;8.114;2023-05-02T11:06:03;996;;;14.6;60.6
12722;BME280;6425;50.316;8.114;2023-05-02T11:09:31;996;;;14.6;60.8
12722;BME280;6425;50.316;8.114;2023-05-02T11:12:00;996;;;14.5;61.2
12722;BME280;6425;50.316;8.114;2023-05-02T11:15:00;996;;;14.9;60.1
12722;BME280;6425;50.316;8.114;2023-05-02T11:18:00;996;;;14.6;60.6
12722;BME280;6425;50.316;8.114;2023-05-02T11:21:23;996;;;14.5;58.2
12722;BME280;6425;50.316;8.114;2023-05-02T11:25:05;997;;;14;60
12722;BME280;6425;50.316;8.114;2023-05-02T11:27:35;996;;;14.6;61.2
12722;BME280;6425;50.316;8.114;2023-05-02T11:30:00;996;;;15.4;60.3
12722;BME280;6425;50.316;8.114;2023-05-02T11:33:16;996;;;15.5;59.9
12722;BME280;6425;50.316;8.114;2023-05-02T11:36:00;997;;;15.1;61.4
12722;BME280;6425;50.316;8.114;2023-05-02T11:39:00;997;;;14.9;61.2
12722;BME280;6425;50.316;8.114;2023-05-02T11:42:00;997;;;14.6;63.7
12722;BME280;6425;50.316;8.114;2023-05-02T11:45:00;997;;;14.4;58.4
12722;BME280;6425;50.316;8.114;2023-05-02T11:48:00;997;;;14.5;58.3
12722;BME280;6425;50.316;8.114;2023-05-02T11:51:00;997;;;14.1;62
12722;BME280;6425;50.316;8.114;2023-05-02T11:54:00;997;;;14.5;61.5
12722;BME280;6425;50.316;8.114;2023-05-02T11:57:00;997;;;14.7;61.8
12722;BME280;6425;50.316;8.114;2023-05-02T12:00:00;997;;;14.9;58.5
12722;BME280;6425;50.316;8.114;2023-05-02T12:03:00;997;;;14.7;57.7
12722;BME280;6425;50.316;8.114;2023-05-02T12:06:07;997;;;14.5;57.8
12722;BME280;6425;50.316;8.114;2023-05-02T12:09:08;997;;;14.2;57.5
12722;BME280;6425;50.316;8.114;2023-05-02T12:12:00;997;;;14.6;58.2
12722;BME280;6425;50.316;8.114;2023-05-02T12:15:02;997;;;15.1;59.4
12722;BME280;6425;50.316;8.114;2023-05-02T12:18:00;997;;;14.9;57
12722;BME280;6425;50.316;8.114;2023-05-02T12:21:00;997;;;14.6;56.3
12722;BME280;6425;50.316;8.114;2023-05-02T12:24:00;997;;;14.5;58.5
12722;BME280;6425;50.316;8.114;2023-05-02T12:27:07;997;;;15;57.7
12722;BME280;6425;50.316;8.114;2023-05-02T12:30:00;997;;;14.8;57.2
12722;BME280;6425;50.316;8.114;2023-05-02T12:33:00;997;;;14.3;56.9
12722;BME280;6425;50.316;8.114;2023-05-02T12:36:04;997;;;14.2;57.2
12722;BME280;6425;50.316;8.114;2023-05-02T12:39:00;997;;;14.2;57.7
12722;BME280;6425;50.316;8.114;2023-05-02T12:45:15;997;;;14.2;57.7
12722;BME280;6425;50.316;8.114;2023-05-02T12:48:00;997;;;13.9;58.1
12722;BME280;6425;50.316;8.114;2023-05-02T12:51:00;997;;;14.1;58.9
12722;BME280;6425;50.316;8.114;2023-05-02T12:54:00;997;;;14.2;58.9
12722;BME280;6425;50.316;8.114;2023-05-02T12:57:00;997;;;14.1;58.5
12722;BME280;6425;50.316;8.114;2023-05-02T13:00:00;997;;;13.9;57.2
12722;BME280;6425;50.316;8.114;2023-05-02T13:03:00;997;;;14.4;57.2
12722;BME280;6425;50.316;8.114;2023-05-02T13:06:00;997;;;14.8;55.1
12722;BME280;6425;50.316;8.114;2023-05-02T13:09:00;997;;;14.4;54.9
12722;BME280;6425;50.316;8.114;2023-05-02T13:12:00;997;;;14.5;54.9
12722;BME280;6425;50.316;8.114;2023-05-02T13:15:00;997;;;14.2;55
12722;BME280;6425;50.316;8.114;2023-05-02T13:18:00;997;;;14.6;53.6
12722;BME280;6425;50.316;8.114;2023-05-02T13:21:00;997;;;15.1;52.3
12722;BME280;6425;50.316;8.114;2023-05-02T13:24:00;997;;;14.8;52.7
12722;BME280;6425;50.316;8.114;2023-05-02T13:27:00;998;;;14.5;53.6
12722;BME280;6425;50.316;8.114;2023-05-02T13:30:00;997;;;14.5;55
12722;BME280;6425;50.316;8.114;2023-05-02T13:33:00;997;;;14.5;54.2
12722;BME280;6425;50.316;8.114;2023-05-02T13:36:00;997;;;14.8;53.9
12722;BME280;6425;50.316;8.114;2023-05-02T13:39:00;997;;;14.7;53.4
12722;BME280;6425;50.316;8.114;2023-05-02T13:42:00;997;;;14.9;53.4
12722;BME280;6425;50.316;8.114;2023-05-02T13:45:00;997;;;14.9;52.4
12722;BME280;6425;50.316;8.114;2023-05-02T13:48:00;997;;;14.6;55.1
12722;BME280;6425;50.316;8.114;2023-05-02T13:51:00;997;;;14.3;55.5
12722;BME280;6425;50.316;8.114;2023-05-02T13:54:00;997;;;13.9;57.6
12722;BME280;6425;50.316;8.114;2023-05-02T13:57:00;998;;;13.9;57.4
12722;BME280;6425;50.316;8.114;2023-05-02T14:00:00;998;;;13.9;57.3
12722;BME280;6425;50.316;8.114;2023-05-02T14:03:00;998;;;13.4;56.7
12722;BME280;6425;50.316;8.114;2023-05-02T14:06:00;998;;;13.1;57.5
12722;BME280;6425;50.316;8.114;2023-05-02T14:09:00;998;;;13.2;57.7
12722;BME280;6425;50.316;8.114;2023-05-02T14:12:00;998;;;13.8;57
12722;BME280;6425;50.316;8.114;2023-05-02T14:15:00;998;;;13.9;55.4
12722;BME280;6425;50.316;8.114;2023-05-02T14:18:00;998;;;13.2;56.9
12722;BME280;6425;50.316;8.114;2023-05-02T14:21:00;998;;;13.3;56
12722;BME280;6425;50.316;8.114;2023-05-02T14:24:00;998;;;13.3;56.2
12722;BME280;6425;50.316;8.114;2023-05-02T14:27:00;998;;;13.6;57.3
12722;BME280;6425;50.316;8.114;2023-05-02T14:30:00;998;;;14.4;55.7
12722;BME280;6425;50.316;8.114;2023-05-02T14:33:00;998;;;14.7;53.7
12722;BME280;6425;50.316;8.114;2023-05-02T14:36:00;998;;;14.2;53.2
12722;BME280;6425;50.316;8.114;2023-05-02T14:39:00;998;;;14.4;52.2
12722;BME280;6425;50.316;8.114;2023-05-02T14:42:00;998;;;14;52.4
12722;BME280;6425;50.316;8.114;2023-05-02T14:45:00;998;;;14.5;53.1
12722;BME280;6425;50.316;8.114;2023-05-02T14:48:00;998;;;14.5;52.2
12722;BME280;6425;50.316;8.114;2023-05-02T14:51:01;998;;;14;53.8
12722;BME280;6425;50.316;8.114;2023-05-02T14:54:00;998;;;13.6;54.7
12722;BME280;6425;50.316;8.114;2023-05-02T14:57:00;998;;;13.9;54.7
12722;BME280;6425;50.316;8.114;2023-05-02T15:00:00;998;;;13.4;54.4
12722;BME280;6425;50.316;8.114;2023-05-02T15:03:00;998;;;13.1;55.8
12722;BME280;6425;50.316;8.114;2023-05-02T15:06:00;998;;;13.4;55.7
12722;BME280;6425;50.316;8.114;2023-05-02T15:09:00;998;;;13.9;54.7
12722;BME280;6425;50.316;8.114;2023-05-02T15:12:00;998;;;14;54.8
12722;BME280;6425;50.316;8.114;2023-05-02T15:15:00;998;;;14;53.8
12722;BME280;6425;50.316;8.114;2023-05-02T15:18:00;998;;;14.3;54.3
12722;BME280;6425;50.316;8.114;2023-05-02T15:21:00;998;;;14.4;52.9
12722;BME280;6425;50.316;8.114;2023-05-02T15:24:00;998;;;14.1;52.4
12722;BME280;6425;50.316;8.114;2023-05-02T15:27:00;998;;;14.1;50.9
12722;BME280;6425;50.316;8.114;2023-05-02T15:30:00;998;;;13.5;52.8
12722;BME280;6425;50.316;8.114;2023-05-02T15:33:00;998;;;13.1;55
12722;BME280;6425;50.316;8.114;2023-05-02T15:36:00;998;;;13.1;54.5
12722;BME280;6425;50.316;8.114;2023-05-02T15:39:00;998;;;13.3;55.2
12722;BME280;6425;50.316;8.114;2023-05-02T15:42:01;998;;;13.5;54.5
12722;BME280;6425;50.316;8.114;2023-05-02T15:45:00;998;;;13.7;51.7
12722;BME280;6425;50.316;8.114;2023-05-02T15:48:00;998;;;14;51.7
12722;BME280;6425;50.316;8.114;2023-05-02T15:51:00;998;;;13.8;50.7
12722;BME280;6425;50.316;8.114;2023-05-02T15:54:00;998;;;14.3;50.2
12722;BME280;6425;50.316;8.114;2023-05-02T15:57:00;998;;;14.3;49.5
12722;BME280;6425;50.316;8.114;2023-05-02T16:00:00;998;;;14.4;47.9
12722;BME280;6425;50.316;8.114;2023-05-02T16:03:00;998;;;14.3;48.4
12722;BME280;6425;50.316;8.114;2023-05-02T16:06:00;998;;;13.8;49.5
12722;BME280;6425;50.316;8.114;2023-05-02T16:09:00;998;;;13.7;51.4
12722;BME280;6425;50.316;8.114;2023-05-02T16:12:00;998;;;13.6;54.2
12722;BME280;6425;50.316;8.114;2023-05-02T16:15:00;998;;;13.4;54.9
12722;BME280;6425;50.316;8.114;2023-05-02T16:18:00;998;;;13.2;54.7
12722;BME280;6425;50.316;8.114;2023-05-02T16:21:00;998;;;13.1;54.6
12722;BME280;6425;50.316;8.114;2023-05-02T16:24:00;998;;;13.2;53.4
12722;BME280;6425;50.316;8.114;2023-05-02T16:27:00;998;;;13.2;53.7
12722;BME280;6425;50.316;8.114;2023-05-02T16:30:00;998;;;13.2;53.3
12722;BME280;6425;50.316;8.114;2023-05-02T16:33:00;998;;;13.3;52
12722;BME280;6425;50.316;8.114;2023-05-02T16:36:00;998;;;13.1;53.8
12722;BME280;6425;50.316;8.114;2023-05-02T16:39:00;998;;;13.1;53.7
12722;BME280;6425;50.316;8.114;2023-05-02T16:42:00;998;;;13.2;53.2
12722;BME280;6425;50.316;8.114;2023-05-02T16:45:00;998;;;13.6;52
12722;BME280;6425;50.316;8.114;2023-05-02T16:48:00;998;;;13.1;51.9
12722;BME280;6425;50.316;8.114;2023-05-02T16:51:00;998;;;13.2;51
12722;BME280;6425;50.316;8.114;2023-05-02T16:54:00;998;;;13.3;51.5
12722;BME280;6425;50.316;8.114;2023-05-02T16:57:00;998;;;13.5;50.9
12722;BME280;6425;50.316;8.114;2023-05-02T17:00:00;998;;;13.1;51.8
12722;BME280;6425;50.316;8.114;2023-05-02T17:03:00;998;;;13.2;51.7
12722;BME280;6425;50.316;8.114;2023-05-02T17:06:00;998;;;13.1;52.1
12722;BME280;6425;50.316;8.114;2023-05-02T17:09:00;998;;;13.1;52.1
12722;BME280;6425;50.316;8.114;2023-05-02T17:12:00;998;;;12.9;51.8
12722;BME280;6425;50.316;8.114;2023-05-02T17:15:00;998;;;13.1;52.2
12722;BME280;6425;50.316;8.114;2023-05-02T17:18:00;998;;;13.1;51.4
12722;BME280;6425;50.316;8.114;2023-05-02T17:21:00;998;;;13.1;51.6
12722;BME280;6425;50.316;8.114;2023-05-02T17:24:00;998;;;13.3;51.8
12722;BME280;6425;50.316;8.114;2023-05-02T17:27:00;998;;;13.4;52
12722;BME280;6425;50.316;8.114;2023-05-02T17:30:00;998;;;13.4;50.9
12722;BME280;6425;50.316;8.114;2023-05-02T17:33:00;998;;;13.4;50.3
12722;BME280;6425;50.316;8.114;2023-05-02T17:36:00;998;;;13.2;50.8
12722;BME280;6425;50.316;8.114;2023-05-02T17:39:00;998;;;13;50.6
12722;BME280;6425;50.316;8.114;2023-05-02T17:42:00;998;;;12.9;50.8
12722;BME280;6425;50.316;8.114;2023-05-02T17:45:00;998;;;12.9;51.1
12722;BME280;6425;50.316;8.114;2023-05-02T17:48:00;998;;;13;51.4
12722;BME280;6425;50.316;8.114;2023-05-02T17:51:00;998;;;13.1;51.8
12722;BME280;6425;50.316;8.114;2023-05-02T17:54:00;998;;;13;52.7
12722;BME280;6425;50.316;8.114;2023-05-02T17:57:00;998;;;13.1;52.6
12722;BME280;6425;50.316;8.114;2023-05-02T18:00:00;998;;;13.3;52.4